| time (UTC) | temp F | wind direction | speed MPH | gust MPH | rain 1hr in | rain 24hr in | rain mn in | humidity % | barometer mb |
| 20260906062004 | 73 | 258 | 3.0 | 5.0 | 0.00 | 0.00 | 0.00 | 56 | 1020.2 |
| 20260906061005 | 72 | 258 | 3.0 | 6.0 | 0.00 | 0.00 | 0.00 | 57 | 1020.1 |
| 20260906055006 | 72 | 265 | 2.0 | 4.0 | 0.00 | 0.00 | 0.00 | 60 | 1020.0 |
| 20260906054004 | 72 | 258 | 2.0 | 3.0 | 0.00 | 0.00 | 0.00 | 61 | 1019.8 |
| 20260906053009 | 73 | 267 | 1.0 | 3.0 | 0.00 | 0.00 | 0.00 | 60 | 1019.7 |
| 20260906052005 | 73 | 274 | 3.0 | 5.0 | 0.00 | 0.00 | 0.00 | 59 | 1019.6 |
| 20260906051005 | 73 | 269 | 3.0 | 6.0 | 0.00 | 0.00 | 0.00 | 59 | 1019.6 |
| 20260906050007 | 74 | 282 | 3.0 | 6.0 | 0.00 | 0.00 | 0.00 | 58 | 1019.5 |
| 20260906045005 | 74 | 282 | 3.0 | 6.0 | 0.00 | 0.00 | 0.00 | 59 | 1019.5 |
| 20260906044006 | 73 | 272 | 3.0 | 5.0 | 0.00 | 0.00 | 0.00 | 60 | 1019.5 |
| 20260906043005 | 73 | 285 | 1.0 | 2.0 | 0.00 | 0.00 | 0.00 | 61 | 1019.6 |
| 20260906042012 | 73 | 259 | 4.0 | 5.0 | 0.00 | 0.00 | 0.00 | 61 | 1019.7 |
| 20260906041004 | 73 | 262 | 4.0 | 6.0 | 0.00 | 0.00 | 0.00 | 61 | 1019.7 |
| 20260906040005 | 73 | 266 | 3.0 | 4.0 | 0.00 | 0.00 | 0.00 | 62 | 1019.6 |
| 20260906034023 | 72 | 235 | 2.0 | 4.0 | 0.00 | 0.00 | 0.00 | 67 | 1019.7 |
| 20260906033026 | 73 | 244 | 2.0 | 3.0 | 0.00 | 0.00 | 0.00 | 66 | 1019.7 |
| 20260906032005 | 73 | 238 | 2.0 | 3.0 | 0.00 | 0.00 | 0.00 | 65 | 1019.7 |
| 20260906031023 | 74 | 266 | 2.0 | 4.0 | 0.00 | 0.00 | 0.00 | 63 | 1019.7 |
| 20260906025022 | 75 | 267 | 3.0 | 5.0 | 0.00 | 0.00 | 0.00 | 63 | 1019.8 |
| 20260906024031 | 76 | 274 | 3.0 | 5.0 | 0.00 | 0.00 | 0.00 | 62 | 1019.7 |
| 20260906022032 | 76 | 288 | 3.0 | 5.0 | 0.00 | 0.00 | 0.00 | 62 | 1019.8 |
| 20260906021028 | 76 | 290 | 3.0 | 5.0 | 0.00 | 0.00 | 0.00 | 62 | 1019.9 |
| 20260906020032 | 76 | 295 | 3.0 | 5.0 | 0.00 | 0.00 | 0.00 | 63 | 1019.9 |
| 20260906015017 | 76 | 304 | 2.0 | 4.0 | 0.00 | 0.00 | 0.00 | 63 | 1020.1 |
| 20260906014022 | 76 | 281 | 2.0 | 3.0 | 0.00 | 0.00 | 0.00 | 64 | 1020.1 |
| 20260906013025 | 76 | 271 | 2.0 | 3.0 | 0.00 | 0.00 | 0.00 | 64 | 1020.2 |
| 20260906012039 | 76 | 271 | 2.0 | 3.0 | 0.00 | 0.00 | 0.00 | 65 | 1020.2 |
| 20260906011019 | 77 | 271 | 0.0 | 2.0 | 0.00 | 0.00 | 0.00 | 66 | 1020.2 |
| 20260906010025 | 76 | 264 | 1.0 | 2.0 | 0.00 | 0.00 | 0.00 | 66 | 1020.3 |
| 20260906005024 | 77 | 270 | 2.0 | 4.0 | 0.00 | 0.00 | 0.00 | 65 | 1020.3 |
| 20260906004030 | 77 | 273 | 2.0 | 3.0 | 0.00 | 0.00 | 0.00 | 66 | 1020.3 |
| 20260906003032 | 78 | 265 | 2.0 | 4.0 | 0.00 | 0.00 | 0.00 | 65 | 1020.3 |
| 20260906002041 | 78 | 286 | 3.0 | 6.0 | 0.00 | 0.00 | 0.00 | 64 | 1020.3 |
| 20260906001024 | 78 | 279 | 4.0 | 6.0 | 0.00 | 0.00 | 0.00 | 64 | 1020.3 |
| 20260906000034 | 78 | 293 | 3.0 | 5.0 | 0.00 | 0.00 | 0.00 | 64 | 1020.3 |
| 20260905235024 | 78 | 282 | 2.0 | 4.0 | 0.00 | 0.00 | 0.00 | 65 | 1020.3 |
| 20260905234027 | 79 | 295 | 3.0 | 5.0 | 0.00 | 0.00 | 0.00 | 64 | 1020.3 |
| 20260905233004 | 79 | 300 | 4.0 | 6.0 | 0.00 | 0.00 | 0.00 | 64 | 1020.4 |
| 20260905232004 | 79 | 297 | 5.0 | 8.0 | 0.00 | 0.00 | 0.00 | 64 | 1020.4 |
| 20260905230006 | 79 | 304 | 4.0 | 8.0 | 0.00 | 0.00 | 0.00 | 64 | 1020.5 |
| 20260905225004 | 80 | 297 | 4.0 | 7.0 | 0.00 | 0.00 | 0.00 | 64 | 1020.6 |
| 20260905224005 | 80 | 304 | 5.0 | 9.0 | 0.00 | 0.00 | 0.00 | 64 | 1020.6 |
| 20260905223005 | 80 | 283 | 4.0 | 6.0 | 0.00 | 0.00 | 0.00 | 65 | 1020.7 |
| 20260905222004 | 80 | 278 | 3.0 | 4.0 | 0.00 | 0.00 | 0.00 | 65 | 1020.7 |
| 20260905221004 | 80 | 302 | 5.0 | 7.0 | 0.00 | 0.00 | 0.00 | 65 | 1020.6 |
| 20260905220009 | 80 | 308 | 7.0 | 10.0 | 0.00 | 0.00 | 0.00 | 65 | 1020.6 |
| 20260905215005 | 81 | 277 | 4.0 | 6.0 | 0.00 | 0.00 | 0.00 | 65 | 1020.8 |
| 20260905214005 | 82 | 297 | 2.0 | 3.0 | 0.00 | 0.00 | 0.00 | 63 | 1020.7 |
| 20260905213004 | 82 | 314 | 3.0 | 4.0 | 0.00 | 0.00 | 0.00 | 64 | 1020.7 |
| 20260905212004 | 82 | 334 | 1.0 | 2.0 | 0.00 | 0.00 | 0.00 | 64 | 1020.7 |
| 20260905211004 | 82 | 28 | 3.0 | 5.0 | 0.00 | 0.00 | 0.00 | 64 | 1020.6 |
| 20260905210008 | 82 | 28 | 5.0 | 6.0 | 0.00 | 0.00 | 0.00 | 64 | 1020.6 |
| 20260905204009 | 82 | 15 | 4.0 | 6.0 | 0.00 | 0.00 | 0.00 | 65 | 1020.7 |
| 20260905203023 | 82 | 27 | 4.0 | 7.0 | 0.00 | 0.00 | 0.00 | 64 | 1020.8 |
| 20260905201004 | 82 | 14 | 4.0 | 7.0 | 0.00 | 0.00 | 0.00 | 64 | 1020.8 |
| 20260905200006 | 82 | 31 | 4.0 | 6.0 | 0.00 | 0.00 | 0.00 | 66 | 1020.7 |
| 20260905195004 | 83 | 22 | 4.0 | 7.0 | 0.00 | 0.00 | 0.00 | 67 | 1020.6 |
| 20260905193006 | 83 | 8 | 4.0 | 6.0 | 0.00 | 0.00 | 0.00 | 66 | 1020.6 |
| 20260905192004 | 83 | 14 | 5.0 | 8.0 | 0.00 | 0.00 | 0.00 | 66 | 1020.5 |
| 20260905191003 | 84 | 18 | 5.0 | 7.0 | 0.00 | 0.00 | 0.00 | 66 | 1020.3 |
| 20260905190005 | 84 | 17 | 4.0 | 6.0 | 0.00 | 0.00 | 0.00 | 64 | 1020.2 |
| 20260905185006 | 85 | 21 | 3.0 | 5.0 | 0.00 | 0.00 | 0.00 | 61 | 1020.1 |
| 20260905184004 | 85 | 57 | 2.0 | 4.0 | 0.00 | 0.00 | 0.00 | 57 | 1020.1 |
| 20260905183006 | 85 | 95 | 2.0 | 3.0 | 0.00 | 0.00 | 0.00 | 51 | 1020.0 |
| 20260905182004 | 85 | 86 | 2.0 | 3.0 | 0.00 | 0.00 | 0.00 | 53 | 1020.0 |
| 20260905181023 | 85 | 99 | 2.0 | 3.0 | 0.00 | 0.00 | 0.00 | 52 | 1019.9 |
| 20260905180005 | 86 | 93 | 3.0 | 4.0 | 0.00 | 0.00 | 0.00 | 53 | 1019.9 |
| 20260905175005 | 86 | 88 | 3.0 | 5.0 | 0.00 | 0.00 | 0.00 | 52 | 1019.9 |
| 20260905174006 | 86 | 104 | 4.0 | 6.0 | 0.00 | 0.00 | 0.00 | 52 | 1019.8 |
| 20260905173008 | 86 | 97 | 4.0 | 7.0 | 0.00 | 0.00 | 0.00 | 53 | 1019.8 |
| 20260905172004 | 87 | 107 | 4.0 | 7.0 | 0.00 | 0.00 | 0.00 | 54 | 1019.8 |
| 20260905171004 | 88 | 84 | 6.0 | 9.0 | 0.00 | 0.00 | 0.00 | 52 | 1019.6 |
| 20260905170004 | 89 | 111 | 4.0 | 7.0 | 0.00 | 0.00 | 0.00 | 53 | 1019.6 |
| 20260905165004 | 89 | 89 | 5.0 | 7.0 | 0.00 | 0.00 | 0.00 | 53 | 1019.7 |
| 20260905164005 | 88 | 136 | 6.0 | 10.0 | 0.00 | 0.00 | 0.00 | 54 | 1019.5 |
| 20260905163005 | 88 | 111 | 7.0 | 10.0 | 0.00 | 0.00 | 0.00 | 52 | 1019.5 |
| 20260905162004 | 89 | 102 | 7.0 | 11.0 | 0.00 | 0.00 | 0.00 | 51 | 1019.5 |
| 20260905160004 | 89 | 123 | 8.0 | 13.0 | 0.00 | 0.00 | 0.00 | 53 | 1019.4 |
| 20260905155003 | 90 | 129 | 7.0 | 11.0 | 0.00 | 0.00 | 0.00 | 51 | 1019.5 |
| 20260905154005 | 89 | 125 | 8.0 | 14.0 | 0.00 | 0.00 | 0.00 | 50 | 1019.5 |
| 20260905153004 | 89 | 134 | 10.0 | 15.0 | 0.00 | 0.00 | 0.00 | 48 | 1019.5 |
| 20260905152004 | 90 | 129 | 10.0 | 15.0 | 0.00 | 0.00 | 0.00 | 46 | 1019.5 |
| 20260905150005 | 90 | 120 | 9.0 | 15.0 | 0.00 | 0.00 | 0.00 | 44 | 1019.6 |
| 20260905145004 | 92 | 112 | 7.0 | 11.0 | 0.00 | 0.00 | 0.00 | 44 | 1019.6 |
| 20260905144004 | 92 | 92 | 7.0 | 11.0 | 0.00 | 0.00 | 0.00 | 45 | 1019.6 |
| 20260905143005 | 92 | 101 | 7.0 | 13.0 | 0.00 | 0.00 | 0.00 | 45 | 1019.7 |
| 20260905142004 | 93 | 79 | 8.0 | 13.0 | 0.00 | 0.00 | 0.00 | 46 | 1019.7 |
| 20260905141004 | 92 | 98 | 8.0 | 13.0 | 0.00 | 0.00 | 0.00 | 44 | 1019.8 |
| 20260905140005 | 92 | 93 | 8.0 | 13.0 | 0.00 | 0.00 | 0.00 | 44 | 1019.9 |
| 20260905135004 | 94 | 88 | 8.0 | 12.0 | 0.00 | 0.00 | 0.00 | 42 | 1020.0 |
| 20260905134005 | 94 | 89 | 8.0 | 13.0 | 0.00 | 0.00 | 0.00 | 42 | 1020.1 |
| 20260905133006 | 94 | 82 | 8.0 | 12.0 | 0.00 | 0.00 | 0.00 | 43 | 1020.2 |
| 20260905132004 | 94 | 68 | 7.0 | 12.0 | 0.00 | 0.00 | 0.00 | 43 | 1020.2 |
| 20260905131004 | 93 | 103 | 7.0 | 11.0 | 0.00 | 0.00 | 0.00 | 49 | 1020.2 |
| 20260905130005 | 91 | 119 | 8.0 | 12.0 | 0.00 | 0.00 | 0.00 | 53 | 1020.3 |
| 20260905124004 | 91 | 105 | 6.0 | 11.0 | 0.00 | 0.00 | 0.00 | 51 | 1020.4 |
| 20260905122005 | 90 | 115 | 7.0 | 12.0 | 0.00 | 0.00 | 0.00 | 54 | 1020.6 |
| 20260905121005 | 91 | 104 | 8.0 | 13.0 | 0.00 | 0.00 | 0.00 | 54 | 1020.5 |
| 20260905120006 | 91 | 119 | 9.0 | 13.0 | 0.00 | 0.00 | 0.00 | 53 | 1020.5 |
| 20260905115004 | 91 | 118 | 8.0 | 12.0 | 0.00 | 0.00 | 0.00 | 50 | 1020.5 |
| 20260905114005 | 92 | 114 | 8.0 | 12.0 | 0.00 | 0.00 | 0.00 | 47 | 1020.5 |
| 20260905113006 | 93 | 112 | 8.0 | 13.0 | 0.00 | 0.00 | 0.00 | 49 | 1020.4 |
| 20260905112004 | 92 | 117 | 7.0 | 11.0 | 0.00 | 0.00 | 0.00 | 51 | 1020.4 |
| 20260905111004 | 93 | 124 | 6.0 | 10.0 | 0.00 | 0.00 | 0.00 | 53 | 1020.4 |
| 20260905110005 | 93 | 121 | 6.0 | 10.0 | 0.00 | 0.00 | 0.00 | 53 | 1020.4 |
| 20260905105004 | 93 | 122 | 6.0 | 9.0 | 0.00 | 0.00 | 0.00 | 51 | 1020.3 |
| 20260905104005 | 94 | 116 | 4.0 | 8.0 | 0.00 | 0.00 | 0.00 | 44 | 1020.3 |
| 20260905103005 | 93 | 146 | 5.0 | 8.0 | 0.00 | 0.00 | 0.00 | 43 | 1020.4 |
| 20260905102005 | 94 | 141 | 3.0 | 5.0 | 0.00 | 0.00 | 0.00 | 42 | 1020.4 |
| 20260905101004 | 94 | 109 | 3.0 | 4.0 | 0.00 | 0.00 | 0.00 | 41 | 1020.4 |
| 20260905100006 | 94 | 253 | 2.0 | 4.0 | 0.00 | 0.00 | 0.00 | 41 | 1020.4 |
| 20260905094007 | 92 | 184 | 3.0 | 6.0 | 0.00 | 0.00 | 0.00 | 44 | 1020.3 |
| 20260905093005 | 92 | 223 | 2.0 | 4.0 | 0.00 | 0.00 | 0.00 | 45 | 1020.3 |
| 20260905092004 | 92 | 279 | 2.0 | 5.0 | 0.00 | 0.00 | 0.00 | 48 | 1020.2 |
| 20260905091004 | 89 | 254 | 4.0 | 6.0 | 0.00 | 0.00 | 0.00 | 51 | 1020.2 |
| 20260905090006 | 88 | 261 | 4.0 | 6.0 | 0.00 | 0.00 | 0.00 | 52 | 1020.1 |
| 20260905085004 | 88 | 260 | 4.0 | 7.0 | 0.00 | 0.00 | 0.00 | 55 | 1020.1 |
| 20260905082005 | 85 | 272 | 6.0 | 9.0 | 0.00 | 0.00 | 0.00 | 63 | 1020.0 |
| 20260905080005 | 83 | 298 | 6.0 | 9.0 | 0.00 | 0.00 | 0.00 | 67 | 1019.9 |
| 20260905075004 | 82 | 301 | 6.0 | 9.0 | 0.00 | 0.00 | 0.00 | 69 | 1020.0 |
| 20260905074005 | 81 | 292 | 5.0 | 8.0 | 0.00 | 0.00 | 0.00 | 68 | 1020.0 |
| 20260905073004 | 80 | 290 | 5.0 | 7.0 | 0.00 | 0.00 | 0.00 | 67 | 1020.0 |
| 20260905072004 | 79 | 292 | 5.0 | 8.0 | 0.00 | 0.00 | 0.00 | 68 | 1019.9 |
| 20260905071005 | 78 | 300 | 5.0 | 9.0 | 0.00 | 0.00 | 0.00 | 69 | 1019.8 |
| 20260905070006 | 78 | 277 | 4.0 | 7.0 | 0.00 | 0.00 | 0.00 | 71 | 1019.8 |
| 20260905065004 | 77 | 303 | 4.0 | 6.0 | 0.00 | 0.00 | 0.00 | 72 | 1019.7 |
| 20260905064007 | 77 | 296 | 3.0 | 4.0 | 0.00 | 0.00 | 0.00 | 73 | 1019.6 |
| 20260905063006 | 76 | 282 | 4.0 | 7.0 | 0.00 | 0.00 | 0.00 | 75 | 1019.7 |